Lignum, Virginia
Current Conditions -  °F | °C
As of 8:15 AM on Thursday 23 Oct 2014 (Local Time) from KCJR Reporting Station
Broken Clouds Broken Clouds  
Wind Chill: 55°   Ceiling: 7500
Heat Index: 55°   Visibility: 10mi
Dew Point: 43°   Wind: 8mph
Humidity: 63%   Direction: 330°NNW
Pressure: 29.95"   Gusts: NA
Location:  38.42°N, 77.83°W
Report Text: KCJR 231215Z AUTO 33007KT 10SM BKN075 13/06 A2995 RMK AO2
Loading
Personal Weather Stations






























Interactive Weather Map
Tropical Storm Tracking
New forecast layout! Learn more

10-Day Weather Forecast

Advertisements
Track Severe Weather on mobile